Alba Iulia, Romania

2:14 PM EET on December 06, 2016 (GMT +0200)
Miercurea Sibiului | | Change Station

Elev 981 ft 45.89 °N, 23.80 °E | Updated 3 minutes ago

Clear
Clear
41.8 °F
Feels Like 39 °F
N
4.7
Wind Variable Wind from WNW
Gusts 11.4 mph

Today
High -- | Low -- °F
--% Chance of Precip.
Yesterday
High -- | Low -- °F
Precip. -- in
Pressure 30.21 in
Visibility -9999.0 miles
Clouds
Windchill 39 °F
Dew Point 23 °F
Humidity 47%
Rainfall 0.00 in
Snow Depth Not available.
7:53 AM 4:40 PM
Waxing Crescent, 41% visible
METAR LRSB 061200Z VRB02KT CAVOK 03/M06 Q1023
Pressure 30.21 in
Visibility -9999.0 miles
Clouds
Windchill 39 °F
Dew Point 23 °F
Humidity 47%
Rainfall 0.00 in
Snow Depth Not available.
7:53 AM 4:40 PM
Waxing Crescent, 41% visible
METAR LRSB 061200Z VRB02KT CAVOK 03/M06 Q1023

10-Day Weather Forecast

×

Almanac

Astronomy

Dec. 06, 2016 Rise Set
Actual Time
Civil Twilight
Nautical Twilight
Astronomical Twilight
Moon
Length of Visible Light
Length of Day
Tomorrow will be .
, % of the Moon is Illuminated

Today's Extremes

Country Highs Country Lows

Community

WunderPhotos

Upload Photos

1,955,936 photos uploaded!

WunderBlog® & News

Nearby

Air Quality

  Air Quality AQ Index Pollutant
Not available.

Snow Depth

Station Depth Elevation

Earthquake Activity

City Distance Mag. Time & Date
Minimum magnitude displayed is 2.5.

Coastal Water Temperatures

Place Temperature

Stations

Nearby Weather Stations

Station Location Temp. Windchill Dew Point Humidity Wind Precip. Elev Updated Type